Time;durP1;ratioP1;P1;durP2;ratioP2;P2;SDS_P1;SDS_P2;PMS_P1;PMS_P2;Temp;Humidity;BMP_temperature;BMP_pressure;BME280_temperature;BME280_humidity;BME280_pressure;Samples;Min_cycle;Max_cycle;Signal;HPM_P1;HPM_P2
2021/05/10 00:00:19;;;;;;;8.00;6.23;;;;;;;;;;4363205;32;20270;-77
2021/05/10 00:02:44;;;;;;;6.53;5.80;;;;;;;;;;4350562;32;20259;-77
2021/05/10 00:05:10;;;;;;;10.55;6.30;;;;;;;;;;4348137;33;20182;-77
2021/05/10 00:07:35;;;;;;;7.87;5.78;;;;;;;;;;4360997;32;20186;-78
2021/05/10 00:10:00;;;;;;;10.82;6.32;;;;;;;;;;4360447;33;20262;-76
2021/05/10 00:12:26;;;;;;;8.02;5.82;;;;;;;;;;4361594;32;20573;-77
2021/05/10 00:14:51;;;;;;;8.15;6.05;;;;;;;;;;4348511;33;20194;-77
2021/05/10 00:17:16;;;;;;;6.75;5.35;;;;;;;;;;4361834;33;20162;-77
2021/05/10 00:19:41;;;;;;;9.13;6.47;;;;;;;;;;4347707;33;20175;-77
2021/05/10 00:22:06;;;;;;;7.70;6.47;;;;;;;;;;4362225;32;20139;-77
2021/05/10 00:24:32;;;;;;;8.90;6.70;;;;;;;;;;4348113;33;20649;-77
2021/05/10 00:26:57;;;;;;;6.80;6.10;;;;;;;;;;4347843;33;20264;-77
2021/05/10 00:29:22;;;;;;;8.27;6.82;;;;;;;;;;4360737;32;20209;-77
2021/05/10 00:31:48;;;;;;;8.40;6.77;;;;;;;;;;4362918;32;20146;-78
2021/05/10 00:34:13;;;;;;;11.38;7.53;;;;;;;;;;4362784;32;20244;-77
2021/05/10 00:36:39;;;;;;;9.02;5.47;;;;;;;;;;4361086;33;20560;-76
2021/05/10 00:39:05;;;;;;;9.57;6.22;;;;;;;;;;4361637;32;20147;-77
2021/05/10 00:41:31;;;;;;;8.52;6.85;;;;;;;;;;4347535;33;20186;-77
2021/05/10 00:43:56;;;;;;;11.18;6.50;;;;;;;;;;4349407;32;20162;-78
2021/05/10 00:46:21;;;;;;;9.60;6.90;;;;;;;;;;4349846;32;20171;-77
2021/05/10 00:48:46;;;;;;;10.65;6.57;;;;;;;;;;4349480;32;20291;-77
2021/05/10 00:51:11;;;;;;;11.43;6.32;;;;;;;;;;4348523;33;20235;-77
2021/05/10 00:53:36;;;;;;;7.87;6.50;;;;;;;;;;4351332;32;20159;-77
2021/05/10 00:56:02;;;;;;;10.73;6.85;;;;;;;;;;4349176;33;20264;-76
2021/05/10 00:58:27;;;;;;;11.52;7.43;;;;;;;;;;4362040;32;20736;-77
2021/05/10 01:00:52;;;;;;;9.00;6.67;;;;;;;;;;4349245;32;20250;-76
2021/05/10 01:03:18;;;;;;;9.95;6.82;;;;;;;;;;4363032;32;20644;-76
2021/05/10 01:05:46;;;;;;;7.87;6.07;;;;;;;;;;4363066;32;20176;-75
2021/05/10 01:08:11;;;;;;;9.85;6.43;;;;;;;;;;4348171;33;20229;-75
2021/05/10 01:10:36;;;;;;;6.80;6.10;;;;;;;;;;4347299;33;20170;-76
2021/05/10 01:13:02;;;;;;;6.87;5.95;;;;;;;;;;4347050;32;22136;-75
2021/05/10 01:15:29;;;;;;;9.93;6.20;;;;;;;;;;4333448;33;20350;-75
2021/05/10 01:17:55;;;;;;;9.52;6.07;;;;;;;;;;4347291;33;20155;-76
2021/05/10 01:20:21;;;;;;;8.23;6.67;;;;;;;;;;4356003;32;20166;-75
2021/05/10 01:22:50;;;;;;;8.98;5.93;;;;;;;;;;4332652;33;20263;-75
2021/05/10 01:25:17;;;;;;;9.68;6.30;;;;;;;;;;4345670;33;20587;-74
2021/05/10 01:27:43;;;;;;;10.23;6.10;;;;;;;;;;4347436;33;20139;-75
2021/05/10 01:30:09;;;;;;;7.18;5.53;;;;;;;;;;4332204;33;20163;-75
2021/05/10 01:32:34;;;;;;;8.10;5.90;;;;;;;;;;4348142;33;20177;-75
2021/05/10 01:35:00;;;;;;;6.62;5.37;;;;;;;;;;4360755;32;20135;-75
2021/05/10 01:37:25;;;;;;;6.72;5.32;;;;;;;;;;4346462;33;20171;-75
2021/05/10 01:39:50;;;;;;;8.65;5.55;;;;;;;;;;4357362;32;20599;-74
2021/05/10 01:42:15;;;;;;;7.03;5.40;;;;;;;;;;4345043;33;20250;-75
2021/05/10 01:44:40;;;;;;;7.10;5.10;;;;;;;;;;4347283;33;20209;-75
2021/05/10 01:47:06;;;;;;;5.90;4.67;;;;;;;;;;4363862;32;20161;-76
2021/05/10 01:49:31;;;;;;;6.47;4.70;;;;;;;;;;4364007;33;20270;-78
2021/05/10 01:51:59;;;;;;;7.03;4.90;;;;;;;;;;4364817;32;20228;-76
2021/05/10 01:54:24;;;;;;;5.80;4.60;;;;;;;;;;4363581;32;20239;-74
2021/05/10 01:56:49;;;;;;;8.13;4.90;;;;;;;;;;4346695;33;20167;-74
2021/05/10 01:59:14;;;;;;;6.27;5.00;;;;;;;;;;4361265;33;20683;-74
2021/05/10 02:01:39;;;;;;;7.62;5.05;;;;;;;;;;4361130;33;20298;-74
2021/05/10 02:04:05;;;;;;;8.60;5.20;;;;;;;;;;4347187;33;20267;-74
2021/05/10 02:06:30;;;;;;;6.90;4.90;;;;;;;;;;4362531;33;20239;-74
2021/05/10 02:08:55;;;;;;;6.20;5.30;;;;;;;;;;4360415;33;20170;-74
2021/05/10 02:11:20;;;;;;;8.23;5.40;;;;;;;;;;4343709;33;20307;-74
2021/05/10 02:13:46;;;;;;;6.80;6.10;;;;;;;;;;4346343;33;20263;-74
2021/05/10 02:16:11;;;;;;;7.80;5.32;;;;;;;;;;4346216;33;20541;-74
2021/05/10 02:18:36;;;;;;;9.38;5.78;;;;;;;;;;4344692;33;20163;-74
2021/05/10 02:21:02;;;;;;;6.07;4.97;;;;;;;;;;4331480;33;20176;-74
2021/05/10 02:23:32;;;;;;;7.97;5.60;;;;;;;;;;4343442;33;20171;-73
2021/05/10 02:26:00;;;;;;;8.23;6.00;;;;;;;;;;4332794;33;20194;-74
2021/05/10 02:28:26;;;;;;;6.62;5.68;;;;;;;;;;4344841;33;20218;-74
2021/05/10 02:30:52;;;;;;;8.38;5.43;;;;;;;;;;4345014;33;20678;-74
2021/05/10 02:33:18;;;;;;;7.50;5.93;;;;;;;;;;4345030;33;20164;-73
2021/05/10 02:35:44;;;;;;;8.50;5.90;;;;;;;;;;4346515;33;20245;-75
2021/05/10 02:38:10;;;;;;;8.75;5.97;;;;;;;;;;4359079;33;20154;-73
2021/05/10 02:40:35;;;;;;;7.00;5.53;;;;;;;;;;4361382;33;20163;-73
2021/05/10 02:43:00;;;;;;;10.43;6.78;;;;;;;;;;4345964;33;20224;-73
2021/05/10 02:45:26;;;;;;;7.55;6.32;;;;;;;;;;4359449;33;20131;-75
2021/05/10 02:47:51;;;;;;;6.60;5.97;;;;;;;;;;4346062;33;20232;-74
2021/05/10 02:50:21;;;;;;;10.60;7.60;;;;;;;;;;4347160;33;20584;-72
2021/05/10 02:52:46;;;;;;;12.10;7.78;;;;;;;;;;4363110;32;20147;-72
2021/05/10 02:55:12;;;;;;;9.13;7.90;;;;;;;;;;4363468;32;20595;-73
2021/05/10 02:57:37;;;;;;;17.25;10.73;;;;;;;;;;4350201;33;20626;-73
2021/05/10 03:00:06;;;;;;;12.68;11.27;;;;;;;;;;4363637;32;20147;-74
2021/05/10 03:02:32;;;;;;;12.40;10.73;;;;;;;;;;4362798;32;20519;-73
2021/05/10 03:04:57;;;;;;;14.65;11.68;;;;;;;;;;4347476;33;20163;-74
2021/05/10 03:07:22;;;;;;;15.30;11.18;;;;;;;;;;4348885;33;20147;-73
2021/05/10 03:09:47;;;;;;;13.90;10.83;;;;;;;;;;4344923;33;20168;-73
2021/05/10 03:12:12;;;;;;;15.00;12.18;;;;;;;;;;4347710;33;20228;-73
2021/05/10 03:14:38;;;;;;;16.58;13.68;;;;;;;;;;4348554;33;20151;-72
2021/05/10 03:17:03;;;;;;;17.87;14.10;;;;;;;;;;4347463;33;20190;-74
2021/05/10 03:19:28;;;;;;;19.33;15.52;;;;;;;;;;4347320;33;20715;-72
2021/05/10 03:21:53;;;;;;;21.30;15.40;;;;;;;;;;4347681;33;20139;-73
2021/05/10 03:24:18;;;;;;;22.83;16.35;;;;;;;;;;4333396;33;20708;-72
2021/05/10 03:26:43;;;;;;;18.98;14.85;;;;;;;;;;4347155;33;20476;-73
2021/05/10 03:29:09;;;;;;;21.23;16.48;;;;;;;;;;4345773;33;20193;-73
2021/05/10 03:31:34;;;;;;;18.25;14.18;;;;;;;;;;4333255;33;20168;-73
2021/05/10 03:34:00;;;;;;;19.40;16.17;;;;;;;;;;4333293;33;20225;-73
2021/05/10 03:36:26;;;;;;;21.23;16.83;;;;;;;;;;4335190;33;20164;-74
2021/05/10 03:38:51;;;;;;;20.58;15.80;;;;;;;;;;4333227;33;20640;-73
2021/05/10 03:41:16;;;;;;;22.85;16.42;;;;;;;;;;4333134;33;20537;-74
2021/05/10 03:43:41;;;;;;;20.33;15.70;;;;;;;;;;4333052;33;20171;-74
2021/05/10 03:46:07;;;;;;;17.25;15.38;;;;;;;;;;4347329;33;20525;-74
2021/05/10 03:48:32;;;;;;;20.35;16.60;;;;;;;;;;4347088;33;20223;-72
2021/05/10 03:50:57;;;;;;;19.80;16.37;;;;;;;;;;4334653;33;20167;-74
2021/05/10 03:53:23;;;;;;;20.52;15.43;;;;;;;;;;4346244;33;20286;-74
2021/05/10 03:55:48;;;;;;;15.73;13.68;;;;;;;;;;4346736;33;20139;-74
2021/05/10 03:58:13;;;;;;;15.93;12.88;;;;;;;;;;4333081;33;20183;-75
2021/05/10 04:00:39;;;;;;;14.23;10.38;;;;;;;;;;4334690;33;20179;-74
2021/05/10 04:03:05;;;;;;;14.57;9.00;;;;;;;;;;4347326;33;20147;-75
2021/05/10 04:15:48;;;;;;;2.55;2.22;;;;;;;;;;4347443;33;20516;-74
2021/05/10 04:18:13;;;;;;;3.12;2.22;;;;;;;;;;4332623;33;20167;-74
2021/05/10 04:20:38;;;;;;;4.65;2.25;;;;;;;;;;4332573;33;20242;-74
2021/05/10 04:23:04;;;;;;;4.50;1.90;;;;;;;;;;4346361;33;20443;-74
2021/05/10 04:25:29;;;;;;;3.45;2.28;;;;;;;;;;4346482;33;20165;-74
2021/05/10 04:27:54;;;;;;;3.62;2.08;;;;;;;;;;4345575;33;20481;-75
2021/05/10 04:30:20;;;;;;;5.47;2.65;;;;;;;;;;4346257;33;20136;-74
2021/05/10 04:32:45;;;;;;;3.15;2.10;;;;;;;;;;4332054;33;20163;-73
2021/05/10 04:35:11;;;;;;;4.10;2.20;;;;;;;;;;4347558;33;20170;-73
2021/05/10 04:37:36;;;;;;;3.25;2.25;;;;;;;;;;4333446;33;20189;-72
2021/05/10 04:40:02;;;;;;;12.30;3.50;;;;;;;;;;4344837;33;20225;-73
2021/05/10 04:42:27;;;;;;;7.35;3.90;;;;;;;;;;4351182;33;20170;-73
2021/05/10 04:44:52;;;;;;;5.68;3.62;;;;;;;;;;4360398;33;20138;-71
2021/05/10 04:47:18;;;;;;;12.88;4.53;;;;;;;;;;4360720;32;20236;-72
2021/05/10 04:49:43;;;;;;;7.10;4.20;;;;;;;;;;4347026;33;20271;-73
2021/05/10 04:52:08;;;;;;;5.68;4.22;;;;;;;;;;4361708;32;20143;-73
2021/05/10 04:54:33;;;;;;;8.35;5.10;;;;;;;;;;4360082;32;20143;-73
2021/05/10 04:56:59;;;;;;;8.68;5.65;;;;;;;;;;4360066;32;20695;-72
2021/05/10 04:59:24;;;;;;;9.75;6.53;;;;;;;;;;4346417;33;20620;-73
2021/05/10 05:01:49;;;;;;;10.57;6.93;;;;;;;;;;4360488;32;20135;-70
2021/05/10 05:04:16;;;;;;;12.63;7.60;;;;;;;;;;4362248;32;20541;-73
2021/05/10 05:06:41;;;;;;;13.93;9.00;;;;;;;;;;4361536;32;20265;-72
2021/05/10 05:09:06;;;;;;;11.45;7.65;;;;;;;;;;4360075;32;20136;-72
2021/05/10 05:11:31;;;;;;;13.00;7.85;;;;;;;;;;4358610;32;20701;-72
2021/05/10 05:13:56;;;;;;;12.18;8.63;;;;;;;;;;4361165;32;20274;-71
2021/05/10 05:16:22;;;;;;;11.80;7.22;;;;;;;;;;4347624;32;20178;-71
2021/05/10 05:18:47;;;;;;;11.68;7.87;;;;;;;;;;4358381;33;20175;-71
2021/05/10 05:21:12;;;;;;;16.60;8.37;;;;;;;;;;4358460;33;20179;-71
2021/05/10 05:23:37;;;;;;;10.43;6.10;;;;;;;;;;4360118;32;20267;-71
2021/05/10 05:26:03;;;;;;;11.52;5.97;;;;;;;;;;4346539;33;20758;-71
2021/05/10 05:28:29;;;;;;;11.25;6.62;;;;;;;;;;4345910;33;20271;-72
2021/05/10 05:30:55;;;;;;;13.93;8.05;;;;;;;;;;4347073;33;20675;-72
2021/05/10 05:33:20;;;;;;;14.73;5.60;;;;;;;;;;4359799;33;20143;-76
2021/05/10 05:35:45;;;;;;;9.38;5.72;;;;;;;;;;4359896;33;20173;-74
2021/05/10 05:38:11;;;;;;;10.65;5.20;;;;;;;;;;4360211;33;20163;-74
2021/05/10 05:40:40;;;;;;;8.65;5.87;;;;;;;;;;4355448;32;20147;-74
2021/05/10 05:43:08;;;;;;;11.90;6.80;;;;;;;;;;4353370;32;20155;-73
2021/05/10 05:45:33;;;;;;;13.60;7.87;;;;;;;;;;4344334;33;20580;-73
2021/05/10 05:47:58;;;;;;;9.88;6.62;;;;;;;;;;4344252;33;20158;-73
2021/05/10 05:50:23;;;;;;;10.43;5.97;;;;;;;;;;4350478;33;20467;-73
2021/05/10 05:52:49;;;;;;;10.43;5.97;;;;;;;;;;4357788;33;20684;-74
2021/05/10 05:55:14;;;;;;;10.57;5.78;;;;;;;;;;4359934;32;20193;-73
2021/05/10 05:57:41;;;;;;;11.15;6.53;;;;;;;;;;4359499;32;20214;-73
2021/05/10 06:00:07;;;;;;;10.85;6.80;;;;;;;;;;4359304;32;20200;-72
2021/05/10 06:02:32;;;;;;;11.12;6.28;;;;;;;;;;4345656;33;20167;-73
2021/05/10 06:04:57;;;;;;;13.95;7.70;;;;;;;;;;4359244;33;20148;-72
2021/05/10 06:07:22;;;;;;;12.20;8.23;;;;;;;;;;4358886;33;20250;-72
2021/05/10 06:09:48;;;;;;;11.45;7.78;;;;;;;;;;4360319;33;20139;-72
2021/05/10 06:12:13;;;;;;;6.78;4.97;;;;;;;;;;4359288;33;20136;-72
2021/05/10 06:14:39;;;;;;;7.97;5.50;;;;;;;;;;4345118;33;20210;-74
2021/05/10 06:17:04;;;;;;;5.00;3.50;;;;;;;;;;4342980;33;20234;-73
2021/05/10 06:19:29;;;;;;;5.18;3.03;;;;;;;;;;4359561;33;20155;-72
2021/05/10 06:21:55;;;;;;;3.47;2.30;;;;;;;;;;4342601;33;20302;-73
2021/05/10 06:24:21;;;;;;;5.07;2.70;;;;;;;;;;4345393;33;20136;-71
2021/05/10 06:26:47;;;;;;;3.47;2.03;;;;;;;;;;4347052;33;20199;-71
2021/05/10 06:29:13;;;;;;;3.65;1.73;;;;;;;;;;4359958;33;20209;-72
2021/05/10 06:31:38;;;;;;;2.78;1.87;;;;;;;;;;4349555;32;20194;-72
2021/05/10 06:34:05;;;;;;;2.80;2.05;;;;;;;;;;4349522;33;20167;-72
2021/05/10 06:36:30;;;;;;;3.95;2.60;;;;;;;;;;4361568;32;20169;-72
2021/05/10 06:38:55;;;;;;;3.67;1.98;;;;;;;;;;4349822;32;20179;-71
2021/05/10 06:41:21;;;;;;;3.03;2.03;;;;;;;;;;4361972;32;20279;-70
2021/05/10 06:43:46;;;;;;;3.17;2.05;;;;;;;;;;4348879;32;20700;-70
2021/05/10 06:46:11;;;;;;;6.20;2.35;;;;;;;;;;4361910;32;20287;-71
2021/05/10 06:48:36;;;;;;;3.53;2.60;;;;;;;;;;4347931;32;20361;-69
2021/05/10 06:51:02;;;;;;;5.03;3.00;;;;;;;;;;4360022;33;20294;-70
2021/05/10 06:53:27;;;;;;;3.65;3.00;;;;;;;;;;4361254;32;20274;-69
2021/05/10 06:55:53;;;;;;;3.65;2.90;;;;;;;;;;4362482;32;20576;-70
2021/05/10 06:58:18;;;;;;;4.53;3.35;;;;;;;;;;4361342;32;20147;-70
2021/05/10 07:00:44;;;;;;;6.12;3.95;;;;;;;;;;4361353;32;20211;-71
2021/05/10 07:03:09;;;;;;;5.35;4.50;;;;;;;;;;4362001;32;20209;-70
2021/05/10 07:05:34;;;;;;;5.82;4.30;;;;;;;;;;4360712;32;20572;-69
2021/05/10 07:08:09;;;;;;;8.98;5.53;;;;;;;;;;4361663;32;20608;-69
2021/05/10 07:10:34;;;;;;;5.97;5.07;;;;;;;;;;4360567;32;20245;-70
2021/05/10 07:13:00;;;;;;;8.20;6.20;;;;;;;;;;4348458;32;20183;-71
2021/05/10 07:15:25;;;;;;;8.82;5.10;;;;;;;;;;4360878;33;20143;-70
2021/05/10 07:18:00;;;;;;;6.67;4.90;;;;;;;;;;4362302;32;20239;-72
2021/05/10 07:20:27;;;;;;;7.28;6.37;;;;;;;;;;4361630;32;20293;-73
2021/05/10 07:22:52;;;;;;;7.60;5.80;;;;;;;;;;4361225;33;20568;-72
2021/05/10 07:25:17;;;;;;;11.02;7.55;;;;;;;;;;4361692;32;20162;-72
2021/05/10 07:27:42;;;;;;;8.10;5.40;;;;;;;;;;4362376;32;20143;-70
2021/05/10 07:30:08;;;;;;;7.60;4.65;;;;;;;;;;4348487;33;20223;-71
2021/05/10 07:32:33;;;;;;;7.85;5.57;;;;;;;;;;4362908;32;20286;-69
2021/05/10 07:34:58;;;;;;;3.50;2.15;;;;;;;;;;4344494;32;20190;-71
2021/05/10 07:37:23;;;;;;;6.50;5.28;;;;;;;;;;4318908;33;20259;-71
2021/05/10 07:39:49;;;;;;;4.50;2.17;;;;;;;;;;4317860;33;20459;-71
2021/05/10 07:42:14;;;;;;;2.78;2.08;;;;;;;;;;4331417;33;20622;-71
2021/05/10 07:44:39;;;;;;;2.43;1.90;;;;;;;;;;4333126;33;20639;-72
2021/05/10 07:47:04;;;;;;;6.15;3.05;;;;;;;;;;4330145;33;20264;-71
2021/05/10 07:49:29;;;;;;;5.32;2.80;;;;;;;;;;4331412;33;20136;-72
2021/05/10 07:51:55;;;;;;;3.30;2.40;;;;;;;;;;4331558;33;20187;-73
2021/05/10 07:54:20;;;;;;;4.55;3.15;;;;;;;;;;4329847;33;20175;-73
2021/05/10 07:56:45;;;;;;;5.03;2.97;;;;;;;;;;4331561;33;20140;-72
2021/05/10 07:59:12;;;;;;;5.65;3.37;;;;;;;;;;4319400;33;20296;-72
2021/05/10 08:01:37;;;;;;;4.95;2.80;;;;;;;;;;4332330;33;20175;-73
2021/05/10 08:04:02;;;;;;;5.57;3.00;;;;;;;;;;4345221;33;20202;-73
2021/05/10 08:06:27;;;;;;;4.30;3.15;;;;;;;;;;4345173;33;20171;-72
2021/05/10 08:08:54;;;;;;;5.60;2.80;;;;;;;;;;4332639;33;20140;-72
2021/05/10 08:11:19;;;;;;;4.80;3.00;;;;;;;;;;4331111;33;20268;-73
2021/05/10 08:13:44;;;;;;;4.80;3.17;;;;;;;;;;4331549;33;20147;-72
2021/05/10 08:16:10;;;;;;;5.03;2.67;;;;;;;;;;4338206;33;20172;-72
2021/05/10 08:18:41;;;;;;;3.87;2.75;;;;;;;;;;4333067;33;20260;-71
2021/05/10 08:21:06;;;;;;;3.12;2.53;;;;;;;;;;4341617;33;20519;-70
2021/05/10 08:23:31;;;;;;;5.13;2.97;;;;;;;;;;4346545;33;20202;-70
2021/05/10 08:25:56;;;;;;;4.80;2.70;;;;;;;;;;4344697;32;20366;-69
2021/05/10 08:28:21;;;;;;;2.97;2.20;;;;;;;;;;4345766;32;20244;-69
2021/05/10 08:30:47;;;;;;;5.35;2.97;;;;;;;;;;4342576;33;20310;-69
2021/05/10 08:33:13;;;;;;;5.78;1.83;;;;;;;;;;4345750;32;20143;-69
2021/05/10 08:35:38;;;;;;;4.05;1.73;;;;;;;;;;4340575;32;20214;-69
2021/05/10 08:38:03;;;;;;;3.60;1.80;;;;;;;;;;4341230;33;20279;-68
2021/05/10 08:40:29;;;;;;;4.95;1.80;;;;;;;;;;4345114;33;20297;-69
2021/05/10 08:42:55;;;;;;;4.32;1.52;;;;;;;;;;4345021;33;20259;-68
2021/05/10 08:45:21;;;;;;;4.07;1.50;;;;;;;;;;4340633;32;20569;-67
2021/05/10 08:47:47;;;;;;;2.25;1.33;;;;;;;;;;4345203;33;20171;-68
2021/05/10 08:50:13;;;;;;;5.35;1.62;;;;;;;;;;4344790;33;20170;-67
2021/05/10 08:52:38;;;;;;;5.40;1.75;;;;;;;;;;4344778;32;20174;-69
2021/05/10 08:55:04;;;;;;;3.72;1.70;;;;;;;;;;4339654;33;20156;-69
2021/05/10 08:57:29;;;;;;;3.83;2.08;;;;;;;;;;4346694;32;20446;-69
2021/05/10 08:59:54;;;;;;;6.57;1.90;;;;;;;;;;4343166;33;20255;-69
2021/05/10 09:02:35;;;;;;;3.90;1.73;;;;;;;;;;4343557;33;20268;-69
2021/05/10 09:05:16;;;;;;;4.22;1.77;;;;;;;;;;4342291;33;20623;-70
2021/05/10 09:07:42;;;;;;;5.15;1.60;;;;;;;;;;4343725;33;20584;-70
2021/05/10 09:10:10;;;;;;;4.60;1.60;;;;;;;;;;4343555;32;20174;-69
2021/05/10 09:12:49;;;;;;;5.03;1.33;;;;;;;;;;4343294;33;20187;-71
2021/05/10 09:15:34;;;;;;;5.03;1.10;;;;;;;;;;4344323;33;20143;-71
2021/05/10 09:18:01;;;;;;;6.12;1.30;;;;;;;;;;4344465;33;20159;-70
2021/05/10 09:20:37;;;;;;;4.82;1.50;;;;;;;;;;4352493;33;20171;-70
2021/05/10 09:23:03;;;;;;;4.18;1.08;;;;;;;;;;4360904;32;20178;-69
2021/05/10 09:25:30;;;;;;;6.97;1.33;;;;;;;;;;4359252;32;20160;-69
2021/05/10 09:28:08;;;;;;;3.95;1.20;;;;;;;;;;4355887;32;20181;-69
2021/05/10 09:30:33;;;;;;;6.45;1.20;;;;;;;;;;4359310;32;20162;-69
2021/05/10 09:32:58;;;;;;;4.43;1.30;;;;;;;;;;4345962;33;20159;-69
2021/05/10 09:35:27;;;;;;;2.83;1.00;;;;;;;;;;4359734;33;20533;-68
2021/05/10 09:38:00;;;;;;;4.57;1.20;;;;;;;;;;4359850;32;20347;-69
2021/05/10 09:40:31;;;;;;;5.15;1.35;;;;;;;;;;4360951;32;20488;-68
2021/05/10 09:42:56;;;;;;;7.10;1.55;;;;;;;;;;4359397;33;20135;-69
2021/05/10 09:45:31;;;;;;;4.10;1.45;;;;;;;;;;4359335;32;20626;-70
2021/05/10 09:48:13;;;;;;;7.03;1.70;;;;;;;;;;4331638;33;20175;-71
2021/05/10 09:50:49;;;;;;;5.18;1.60;;;;;;;;;;4344675;33;20553;-70
2021/05/10 09:53:27;;;;;;;5.00;1.80;;;;;;;;;;4346306;32;20236;-70
2021/05/10 09:55:53;;;;;;;8.57;2.25;;;;;;;;;;4345584;33;20190;-71
2021/05/10 09:58:20;;;;;;;5.90;2.78;;;;;;;;;;4345833;32;20166;-70
2021/05/10 10:00:45;;;;;;;7.35;2.45;;;;;;;;;;4359694;32;20155;-72
2021/05/10 10:03:30;;;;;;;6.00;2.80;;;;;;;;;;4344119;33;20550;-71
2021/05/10 10:05:56;;;;;;;8.38;3.05;;;;;;;;;;4359263;33;20211;-73
2021/05/10 10:08:22;;;;;;;11.25;3.28;;;;;;;;;;4360032;33;20618;-73
2021/05/10 10:10:47;;;;;;;8.63;3.20;;;;;;;;;;4344813;33;20174;-73
2021/05/10 10:13:16;;;;;;;9.10;3.65;;;;;;;;;;4343175;33;20172;-72
2021/05/10 10:15:42;;;;;;;6.70;3.50;;;;;;;;;;4345242;33;20507;-72
2021/05/10 10:18:09;;;;;;;6.50;4.40;;;;;;;;;;4359118;33;20134;-72
2021/05/10 10:20:36;;;;;;;8.15;5.20;;;;;;;;;;4358706;33;20519;-72
2021/05/10 10:23:02;;;;;;;11.82;5.32;;;;;;;;;;4356948;33;20155;-72
2021/05/10 10:25:27;;;;;;;11.10;5.35;;;;;;;;;;4331444;33;20194;-72
2021/05/10 10:27:53;;;;;;;8.13;5.80;;;;;;;;;;4345094;33;20622;-71
2021/05/10 10:30:20;;;;;;;9.95;5.60;;;;;;;;;;4343029;33;20198;-71
2021/05/10 10:32:48;;;;;;;12.45;6.45;;;;;;;;;;4343871;33;20229;-72
2021/05/10 10:35:14;;;;;;;11.55;6.00;;;;;;;;;;4345687;33;20162;-72
2021/05/10 10:37:40;;;;;;;9.55;6.70;;;;;;;;;;4358691;33;20553;-72
2021/05/10 10:40:15;;;;;;;11.75;6.47;;;;;;;;;;4345332;33;20189;-74
2021/05/10 10:42:40;;;;;;;10.07;6.28;;;;;;;;;;4346458;33;20177;-72
2021/05/10 10:45:05;;;;;;;9.70;6.53;;;;;;;;;;4345782;33;20191;-72
2021/05/10 10:47:36;;;;;;;8.50;7.15;;;;;;;;;;4358146;33;20248;-72
2021/05/10 10:50:03;;;;;;;9.13;6.80;;;;;;;;;;4358586;33;20158;-72
2021/05/10 10:52:30;;;;;;;10.43;5.90;;;;;;;;;;4344887;33;20172;-72
2021/05/10 10:55:14;;;;;;;8.35;6.25;;;;;;;;;;4358029;33;20139;-72
2021/05/10 10:57:40;;;;;;;7.47;5.37;;;;;;;;;;4344757;33;20241;-72
2021/05/10 11:00:06;;;;;;;7.43;6.10;;;;;;;;;;4345319;33;20224;-71
2021/05/10 11:02:45;;;;;;;6.93;5.20;;;;;;;;;;4357143;33;20159;-75
2021/05/10 11:05:14;;;;;;;7.87;5.10;;;;;;;;;;4342049;33;20204;-73
2021/05/10 11:07:45;;;;;;;6.22;3.87;;;;;;;;;;4358854;33;20205;-72
2021/05/10 11:10:10;;;;;;;7.85;3.78;;;;;;;;;;4345838;33;20167;-71
2021/05/10 11:12:49;;;;;;;6.62;3.72;;;;;;;;;;4346361;33;20190;-71
2021/05/10 11:15:34;;;;;;;8.20;3.53;;;;;;;;;;4344859;33;20182;-71
2021/05/10 11:17:59;;;;;;;5.78;3.42;;;;;;;;;;4349653;33;20241;-71
2021/05/10 11:20:40;;;;;;;4.50;2.90;;;;;;;;;;4360907;32;20241;-71
2021/05/10 11:23:23;;;;;;;5.93;3.28;;;;;;;;;;4361051;32;20131;-71
2021/05/10 11:25:49;;;;;;;6.47;2.92;;;;;;;;;;4361157;32;20147;-71
2021/05/10 11:28:29;;;;;;;6.95;3.20;;;;;;;;;;4359808;33;20569;-71
2021/05/10 11:31:02;;;;;;;5.72;2.60;;;;;;;;;;4362925;32;20173;-71
2021/05/10 11:33:46;;;;;;;4.72;2.62;;;;;;;;;;4347189;33;20183;-71
2021/05/10 11:36:21;;;;;;;3.75;2.20;;;;;;;;;;4333628;33;20175;-71
2021/05/10 11:38:53;;;;;;;8.18;2.20;;;;;;;;;;4345922;33;20209;-71
2021/05/10 11:41:26;;;;;;;4.12;2.00;;;;;;;;;;4346778;33;20151;-72
2021/05/10 11:43:51;;;;;;;5.95;1.80;;;;;;;;;;4335152;33;20163;-72
2021/05/10 11:46:31;;;;;;;4.53;1.70;;;;;;;;;;4340688;32;20179;-72
2021/05/10 11:48:56;;;;;;;4.87;1.98;;;;;;;;;;4347695;33;20214;-72
2021/05/10 11:51:21;;;;;;;3.67;1.90;;;;;;;;;;4346034;33;20193;-71
2021/05/10 11:53:54;;;;;;;3.95;1.77;;;;;;;;;;4332289;33;20706;-69
2021/05/10 11:56:23;;;;;;;5.25;1.77;;;;;;;;;;4334378;33;20186;-71
2021/05/10 11:58:56;;;;;;;5.65;2.00;;;;;;;;;;4347255;33;20143;-71
2021/05/10 12:01:31;;;;;;;4.20;1.77;;;;;;;;;;4332247;33;20213;-71
2021/05/10 12:03:57;;;;;;;4.03;1.80;;;;;;;;;;4335996;33;20170;-73
2021/05/10 12:06:32;;;;;;;5.43;2.00;;;;;;;;;;4353606;33;20551;-71
2021/05/10 12:08:57;;;;;;;5.97;2.22;;;;;;;;;;4359053;33;20138;-71
2021/05/10 12:11:23;;;;;;;4.85;1.80;;;;;;;;;;4345436;33;20232;-70
2021/05/10 12:13:49;;;;;;;4.10;2.00;;;;;;;;;;4360726;32;20232;-72
2021/05/10 12:16:14;;;;;;;6.93;2.17;;;;;;;;;;4346250;33;20209;-71
2021/05/10 12:18:52;;;;;;;4.85;1.98;;;;;;;;;;4351011;33;20181;-71
2021/05/10 12:21:17;;;;;;;6.55;1.87;;;;;;;;;;4330884;33;20179;-71
2021/05/10 12:23:42;;;;;;;5.85;1.92;;;;;;;;;;4355601;32;20190;-72
2021/05/10 12:26:11;;;;;;;5.40;1.95;;;;;;;;;;4339685;32;20701;-71
2021/05/10 12:28:36;;;;;;;5.40;2.28;;;;;;;;;;4347493;33;20238;-71
2021/05/10 12:31:02;;;;;;;6.15;2.22;;;;;;;;;;4359634;32;20229;-71
2021/05/10 12:33:28;;;;;;;5.62;2.20;;;;;;;;;;4361812;32;20230;-72
2021/05/10 12:36:02;;;;;;;6.15;2.62;;;;;;;;;;4360237;32;20537;-71
2021/05/10 12:38:36;;;;;;;6.07;2.10;;;;;;;;;;4359199;33;20131;-70
2021/05/10 12:41:02;;;;;;;5.28;2.20;;;;;;;;;;4346552;33;20174;-70
2021/05/10 12:43:29;;;;;;;5.80;2.42;;;;;;;;;;4361165;32;20215;-71
2021/05/10 12:45:57;;;;;;;3.83;2.17;;;;;;;;;;4359949;32;20582;-71
2021/05/10 12:48:34;;;;;;;6.85;2.45;;;;;;;;;;4358823;32;20244;-71
2021/05/10 12:51:10;;;;;;;5.40;2.00;;;;;;;;;;4358776;32;20185;-70
2021/05/10 12:53:39;;;;;;;5.53;2.03;;;;;;;;;;4348750;33;20543;-70
2021/05/10 12:56:12;;;;;;;8.68;2.40;;;;;;;;;;4331763;33;20207;-69
2021/05/10 12:58:37;;;;;;;5.43;2.08;;;;;;;;;;4352965;33;20162;-70
2021/05/10 13:01:15;;;;;;;5.55;2.08;;;;;;;;;;4345634;33;20230;-70
2021/05/10 13:03:41;;;;;;;6.03;2.10;;;;;;;;;;4346044;33;20207;-71
2021/05/10 13:06:07;;;;;;;7.28;1.80;;;;;;;;;;4354635;32;20151;-72
2021/05/10 13:08:40;;;;;;;4.60;1.90;;;;;;;;;;4346702;33;20195;-73
2021/05/10 13:11:06;;;;;;;5.75;2.00;;;;;;;;;;4344526;33;20518;-72
2021/05/10 13:13:45;;;;;;;5.70;1.70;;;;;;;;;;4341303;33;20538;-72
2021/05/10 13:16:33;;;;;;;8.20;1.90;;;;;;;;;;4345924;33;20175;-72
2021/05/10 13:33:29;;;;;;;5.18;1.40;;;;;;;;;;4359556;32;20591;-70
2021/05/10 13:35:58;;;;;;;4.75;1.48;;;;;;;;;;4360041;32;20147;-71
2021/05/10 13:38:23;;;;;;;5.78;1.30;;;;;;;;;;4344916;33;20531;-71
2021/05/10 13:40:49;;;;;;;6.57;1.87;;;;;;;;;;4360956;32;20143;-71
2021/05/10 13:43:22;;;;;;;6.18;2.08;;;;;;;;;;4360602;32;20162;-71
2021/05/10 13:45:47;;;;;;;5.32;1.70;;;;;;;;;;4359498;33;20130;-70
2021/05/10 13:48:12;;;;;;;5.12;1.73;;;;;;;;;;4359917;32;20243;-71
2021/05/10 13:50:38;;;;;;;4.57;1.40;;;;;;;;;;4358493;33;20594;-72
2021/05/10 13:53:03;;;;;;;3.97;1.27;;;;;;;;;;4360468;32;20181;-70
2021/05/10 13:55:28;;;;;;;5.85;1.37;;;;;;;;;;4359773;32;20258;-71
2021/05/10 13:57:53;;;;;;;5.97;1.42;;;;;;;;;;4360938;32;20139;-72
2021/05/10 14:00:20;;;;;;;5.07;1.40;;;;;;;;;;4344769;33;20616;-70
2021/05/10 14:02:46;;;;;;;3.50;1.20;;;;;;;;;;4343492;33;20193;-71
2021/05/10 14:05:12;;;;;;;4.28;1.65;;;;;;;;;;4345613;33;20819;-72
2021/05/10 14:07:37;;;;;;;4.28;1.42;;;;;;;;;;4344213;33;20178;-71
2021/05/10 14:10:02;;;;;;;3.00;1.20;;;;;;;;;;4330821;33;20662;-71
2021/05/10 14:12:28;;;;;;;5.45;1.70;;;;;;;;;;4345063;33;20314;-71
2021/05/10 14:14:53;;;;;;;2.40;1.00;;;;;;;;;;4330648;33;20171;-71
2021/05/10 14:17:19;;;;;;;4.57;1.20;;;;;;;;;;4344936;33;20628;-70
2021/05/10 14:19:44;;;;;;;7.75;1.60;;;;;;;;;;4344231;33;20229;-70
2021/05/10 14:22:09;;;;;;;6.70;1.70;;;;;;;;;;4345506;33;20211;-70
2021/05/10 14:24:34;;;;;;;4.82;1.50;;;;;;;;;;4345845;33;20293;-70
2021/05/10 14:27:04;;;;;;;5.85;1.92;;;;;;;;;;4344893;33;20263;-70
2021/05/10 14:29:29;;;;;;;6.62;1.60;;;;;;;;;;4347170;33;20171;-71
2021/05/10 14:31:54;;;;;;;6.03;1.45;;;;;;;;;;4358537;33;20135;-72
2021/05/10 14:34:21;;;;;;;4.37;1.07;;;;;;;;;;4360266;33;20259;-71
2021/05/10 14:36:46;;;;;;;4.50;1.17;;;;;;;;;;4359802;33;20244;-71
2021/05/10 14:39:11;;;;;;;5.25;1.30;;;;;;;;;;4360346;33;20208;-70
2021/05/10 14:41:40;;;;;;;4.57;1.37;;;;;;;;;;4350906;33;20196;-71
2021/05/10 14:44:05;;;;;;;3.80;1.00;;;;;;;;;;4331612;33;20425;-70
2021/05/10 14:46:31;;;;;;;4.72;0.93;;;;;;;;;;4332555;33;20163;-70
2021/05/10 14:48:56;;;;;;;2.62;1.10;;;;;;;;;;4346246;33;20139;-70
2021/05/10 14:51:22;;;;;;;5.72;1.02;;;;;;;;;;4332548;33;20237;-72
2021/05/10 14:53:47;;;;;;;3.50;1.20;;;;;;;;;;4348093;33;20181;-71
2021/05/10 14:56:12;;;;;;;5.97;1.08;;;;;;;;;;4331146;33;20543;-71
2021/05/10 14:58:37;;;;;;;2.83;0.88;;;;;;;;;;4346199;33;20190;-70
2021/05/10 15:01:03;;;;;;;4.72;1.25;;;;;;;;;;4337275;33;20166;-72